createdAt,value
2023-04-17T00:00:20.723Z,55.22
2023-04-17T00:03:22.548Z,55.32
2023-04-17T00:06:24.788Z,55.37
2023-04-17T00:09:26.440Z,55.17
2023-04-17T00:12:27.999Z,55.35
2023-04-17T00:15:29.710Z,55.43
2023-04-17T00:18:31.339Z,55.37
2023-04-17T00:21:32.975Z,55.44
2023-04-17T00:24:34.525Z,55.53
2023-04-17T00:27:36.114Z,55.46
2023-04-17T00:30:37.749Z,55.48
2023-04-17T00:33:39.310Z,55.39
2023-04-17T00:36:40.831Z,55.45
2023-04-17T00:39:42.534Z,55.51
2023-04-17T00:42:45.664Z,55.32
2023-04-17T00:45:50.476Z,55.48
2023-04-17T00:48:52.220Z,55.38
2023-04-17T00:51:53.892Z,55.65
2023-04-17T00:54:56.251Z,55.59
2023-04-17T00:57:58.477Z,55.62
2023-04-17T01:01:00.495Z,55.53
2023-04-17T01:04:05.303Z,55.50
2023-04-17T01:07:07.363Z,55.51
2023-04-17T01:10:09.879Z,55.59
2023-04-17T01:13:11.591Z,55.66
2023-04-17T01:16:13.688Z,55.63
2023-04-17T01:19:16.160Z,55.66
2023-04-17T01:22:18.153Z,55.56
2023-04-17T01:25:19.977Z,55.74
2023-04-17T01:28:21.553Z,55.71
2023-04-17T01:31:24.053Z,55.74
2023-04-17T01:34:25.705Z,55.73
2023-04-17T01:37:27.549Z,55.82
2023-04-17T01:40:29.121Z,55.83
2023-04-17T01:43:30.647Z,55.66
2023-04-17T01:46:32.246Z,55.91
2023-04-17T01:49:33.970Z,55.86
2023-04-17T01:52:36.448Z,55.95
2023-04-17T01:55:38.016Z,55.68
2023-04-17T01:58:40.008Z,55.75
2023-04-17T02:01:41.698Z,55.94
2023-04-17T02:04:43.421Z,55.84
2023-04-17T02:07:45.295Z,55.96
2023-04-17T02:10:46.901Z,55.70
2023-04-17T02:13:48.498Z,55.76
2023-04-17T02:16:50.195Z,55.89
2023-04-17T02:19:51.738Z,55.90
2023-04-17T02:22:53.330Z,55.76
2023-04-17T02:25:54.896Z,55.87
2023-04-17T02:28:56.422Z,55.89
2023-04-17T02:31:57.955Z,55.94
2023-04-17T02:34:59.559Z,55.72
2023-04-17T02:38:01.122Z,55.70
2023-04-17T02:41:02.737Z,55.93
2023-04-17T02:44:04.387Z,55.74
2023-04-17T02:47:06.565Z,55.94
2023-04-17T02:50:09.234Z,56.09
2023-04-17T02:53:11.784Z,56.06
2023-04-17T02:56:13.294Z,55.87
2023-04-17T02:59:14.942Z,56.07
2023-04-17T03:02:21.907Z,55.91
2023-04-17T03:05:23.850Z,55.91
2023-04-17T03:08:25.393Z,56.04
2023-04-17T03:11:27.014Z,55.98
2023-04-17T03:14:28.606Z,56.00
2023-04-17T03:17:30.148Z,56.04
2023-04-17T03:20:31.691Z,55.94
2023-04-17T03:23:33.393Z,56.07
2023-04-17T03:26:34.986Z,56.10
2023-04-17T03:29:36.567Z,56.20
2023-04-17T03:32:38.197Z,56.13
2023-04-17T03:35:39.963Z,56.17
2023-04-17T03:38:42.051Z,56.13
2023-04-17T03:41:43.717Z,56.15
2023-04-17T03:44:45.411Z,56.06
2023-04-17T03:47:47.997Z,56.09
2023-04-17T03:50:51.489Z,56.06
2023-04-17T03:53:53.451Z,56.30
2023-04-17T03:56:55.014Z,56.21
2023-04-17T03:59:56.542Z,56.28
2023-04-17T04:02:58.200Z,56.08
2023-04-17T04:05:59.930Z,56.32
2023-04-17T04:09:01.428Z,56.13
2023-04-17T04:12:03.094Z,56.29
2023-04-17T04:15:05.175Z,56.20
2023-04-17T04:18:06.785Z,56.32
2023-04-17T04:21:08.342Z,56.11
2023-04-17T04:24:10.289Z,56.21
2023-04-17T04:27:12.807Z,56.31
2023-04-17T04:30:14.838Z,56.27
2023-04-17T04:33:22.611Z,56.29
2023-04-17T04:36:25.155Z,56.20
2023-04-17T04:39:26.738Z,56.33
2023-04-17T04:42:29.399Z,56.30
2023-04-17T04:45:30.915Z,57.00
2023-04-17T04:48:32.431Z,56.79
2023-04-17T04:51:35.109Z,56.57
2023-04-17T04:54:36.665Z,56.57
2023-04-17T04:57:38.218Z,56.37
2023-04-17T05:00:39.984Z,56.50
2023-04-17T05:03:41.783Z,56.50
2023-04-17T05:06:43.502Z,56.45
2023-04-17T05:09:45.330Z,56.47
2023-04-17T05:12:47.181Z,56.58
2023-04-17T05:15:48.777Z,56.49
2023-04-17T05:18:50.381Z,56.66
2023-04-17T05:21:52.014Z,56.42
2023-04-17T05:24:53.584Z,56.57
2023-04-17T05:27:55.362Z,56.53
2023-04-17T05:30:57.247Z,56.44
2023-04-17T05:33:58.815Z,56.67
2023-04-17T05:37:00.367Z,56.60
2023-04-17T05:40:02.683Z,56.56
2023-04-17T05:43:11.263Z,56.64
2023-04-17T05:46:12.839Z,56.48
2023-04-17T05:49:14.509Z,56.57
2023-04-17T05:52:16.378Z,56.63
2023-04-17T05:55:20.269Z,56.56
2023-04-17T05:58:24.457Z,56.52
2023-04-17T06:01:26.350Z,56.70
2023-04-17T06:04:29.501Z,56.58
2023-04-17T06:07:31.256Z,56.58
2023-04-17T06:10:33.745Z,56.81
2023-04-17T06:13:35.306Z,56.73
2023-04-17T06:16:36.866Z,56.64
2023-04-17T06:19:38.774Z,56.78
2023-04-17T06:22:41.241Z,56.74
2023-04-17T06:25:42.888Z,56.67
2023-04-17T06:28:44.500Z,56.76
2023-04-17T06:31:46.377Z,56.74
2023-04-17T06:34:59.141Z,56.86
2023-04-17T06:38:01.459Z,56.78
2023-04-17T06:41:03.058Z,56.76
2023-04-17T06:44:04.956Z,56.79
2023-04-17T06:47:06.787Z,56.71
2023-04-17T06:50:09.448Z,56.93
2023-04-17T06:53:11.361Z,56.68
2023-04-17T06:56:12.953Z,57.04
2023-04-17T06:59:14.850Z,56.84
2023-04-17T07:02:16.703Z,56.92
2023-04-17T07:05:18.980Z,56.91
2023-04-17T07:08:22.422Z,56.71
2023-04-17T07:11:24.187Z,56.85
2023-04-17T07:14:25.854Z,56.88
2023-04-17T07:17:27.923Z,57.14
2023-04-17T07:20:29.541Z,56.80
2023-04-17T07:23:31.175Z,57.01
2023-04-17T07:26:32.756Z,57.04
2023-04-17T07:29:34.379Z,57.03
2023-04-17T07:32:36.470Z,57.03
2023-04-17T07:35:38.062Z,56.88
2023-04-17T07:38:41.027Z,56.63
2023-04-17T07:41:42.648Z,56.84
2023-04-17T07:44:44.253Z,56.71
2023-04-17T07:47:46.640Z,56.77
2023-04-17T07:50:49.304Z,56.68
2023-04-17T07:53:50.849Z,56.69
2023-04-17T07:56:52.661Z,56.57
2023-04-17T07:59:54.294Z,56.51
2023-04-17T08:02:56.268Z,56.41
2023-04-17T08:05:58.733Z,56.35
2023-04-17T08:09:02.207Z,56.40
2023-04-17T08:12:03.882Z,56.33
2023-04-17T08:15:05.983Z,56.21
2023-04-17T08:18:09.646Z,56.17
2023-04-17T08:21:11.583Z,55.95
2023-04-17T08:24:13.121Z,56.15
2023-04-17T08:27:15.347Z,55.83
2023-04-17T08:30:19.011Z,55.72
2023-04-17T08:33:21.261Z,55.66
2023-04-17T08:36:23.027Z,55.66
2023-04-17T08:39:24.562Z,55.59
2023-04-17T08:42:26.386Z,55.49
2023-04-17T08:45:28.522Z,55.54
2023-04-17T08:48:31.166Z,55.43
2023-04-17T08:51:32.805Z,55.48
2023-04-17T08:54:35.602Z,55.26
2023-04-17T08:57:57.107Z,55.59
2023-04-17T09:01:09.128Z,55.48
2023-04-17T09:04:10.840Z,55.21
2023-04-17T09:07:13.882Z,55.41
2023-04-17T09:10:16.207Z,55.07
2023-04-17T09:13:20.495Z,54.90
2023-04-17T09:16:24.662Z,55.06
2023-04-17T09:19:26.443Z,55.04
2023-04-17T09:22:27.993Z,55.36
2023-04-17T09:25:29.968Z,55.08
2023-04-17T09:28:35.443Z,54.60
2023-04-17T09:31:39.236Z,54.82
2023-04-17T09:34:41.741Z,54.76
2023-04-17T09:37:58.652Z,54.64
2023-04-17T09:41:00.251Z,54.47
2023-04-17T09:44:05.311Z,54.28
2023-04-17T09:47:08.236Z,54.09
2023-04-17T09:50:10.125Z,53.97
2023-04-17T09:53:11.716Z,53.67
2023-04-17T09:56:13.693Z,53.60
2023-04-17T09:59:16.619Z,53.57
2023-04-17T10:02:19.984Z,53.48
2023-04-17T10:05:31.555Z,53.56
2023-04-17T10:08:33.694Z,53.41
2023-04-17T10:11:38.306Z,53.13
2023-04-17T10:14:44.093Z,53.13
2023-04-17T10:17:47.374Z,53.20
2023-04-17T10:20:50.797Z,52.91
2023-04-17T10:23:53.229Z,52.80
2023-04-17T10:26:55.041Z,52.60
2023-04-17T10:30:01.738Z,52.51
2023-04-17T10:33:22.096Z,52.47
2023-04-17T10:36:39.028Z,52.53
2023-04-17T10:39:52.836Z,52.37
2023-04-17T10:43:23.230Z,52.34
2023-04-17T10:46:26.130Z,52.19
2023-04-17T10:49:27.865Z,52.17
2023-04-17T10:52:32.321Z,52.15
2023-04-17T10:55:33.924Z,52.10
2023-04-17T10:58:39.936Z,52.01
2023-04-17T11:01:51.019Z,51.91
2023-04-17T11:05:06.591Z,51.91
2023-04-17T11:08:09.711Z,51.92
2023-04-17T11:11:15.457Z,51.51
2023-04-17T11:14:20.279Z,51.60
2023-04-17T11:17:22.773Z,51.40
2023-04-17T11:20:25.948Z,51.22
2023-04-17T11:23:33.507Z,51.30
2023-04-17T11:26:47.602Z,51.32
2023-04-17T11:29:49.140Z,51.24
2023-04-17T11:32:52.124Z,51.01
2023-04-17T11:35:54.674Z,51.03
2023-04-17T11:38:57.217Z,51.08
2023-04-17T11:41:59.058Z,50.78
2023-04-17T11:45:07.367Z,50.76
2023-04-17T11:48:13.520Z,50.81
2023-04-17T11:51:18.226Z,50.71
2023-04-17T11:54:27.633Z,50.93
2023-04-17T11:57:29.461Z,50.77
2023-04-17T12:00:31.947Z,50.98
2023-04-17T12:03:37.054Z,50.69
2023-04-17T12:06:38.865Z,50.71
2023-04-17T12:09:41.016Z,50.63
2023-04-17T12:12:45.248Z,50.43
2023-04-17T12:15:46.992Z,50.60
2023-04-17T12:18:48.692Z,50.58
2023-04-17T12:21:52.402Z,50.50
2023-04-17T12:24:53.939Z,50.21
2023-04-17T12:27:57.078Z,50.27
2023-04-17T12:30:58.678Z,50.08
2023-04-17T12:34:00.369Z,50.16
2023-04-17T12:37:02.039Z,50.19
2023-04-17T12:40:04.317Z,50.08
2023-04-17T12:43:06.719Z,49.98
2023-04-17T12:46:08.301Z,49.90
2023-04-17T12:49:10.242Z,49.51
2023-04-17T12:52:11.983Z,49.72
2023-04-17T12:55:13.612Z,49.61
2023-04-17T12:58:15.275Z,49.88
2023-04-17T13:01:16.972Z,49.77
2023-04-17T13:04:19.229Z,49.84
2023-04-17T13:07:21.499Z,49.49
2023-04-17T13:10:23.188Z,49.33
2023-04-17T13:13:24.798Z,49.56
2023-04-17T13:16:27.046Z,49.47
2023-04-17T13:19:28.853Z,49.59
2023-04-17T13:22:30.555Z,49.50
2023-04-17T13:25:32.491Z,49.29
2023-04-17T13:28:34.640Z,49.17
2023-04-17T13:31:37.307Z,49.25
2023-04-17T13:34:39.375Z,49.35
2023-04-17T13:37:41.484Z,49.27
2023-04-17T13:40:43.102Z,49.25
2023-04-17T13:43:45.139Z,49.18
2023-04-17T13:46:47.607Z,49.18
2023-04-17T13:49:49.353Z,49.26
2023-04-17T13:52:51.161Z,48.93
2023-04-17T13:55:52.796Z,48.77
2023-04-17T13:58:55.011Z,49.13
2023-04-17T14:01:56.651Z,48.87
2023-04-17T14:04:58.550Z,48.79
2023-04-17T14:08:00.294Z,48.64
2023-04-17T14:11:01.954Z,48.47
2023-04-17T14:14:03.512Z,48.62
2023-04-17T14:17:05.337Z,48.49
2023-04-17T14:20:07.912Z,48.44
2023-04-17T14:23:09.484Z,48.53
2023-04-17T14:26:12.265Z,48.36
2023-04-17T14:29:14.465Z,48.34
2023-04-17T14:32:16.248Z,48.41
2023-04-17T14:35:17.813Z,48.36
2023-04-17T14:38:20.205Z,48.34
2023-04-17T14:41:21.803Z,48.31
2023-04-17T14:44:23.382Z,48.37
2023-04-17T14:47:25.000Z,48.16
2023-04-17T14:50:26.708Z,48.18
2023-04-17T14:53:28.309Z,48.22
2023-04-17T14:56:29.962Z,48.24
2023-04-17T14:59:31.839Z,47.99
2023-04-17T15:02:38.426Z,47.83
2023-04-17T15:05:40.518Z,48.17
2023-04-17T15:08:42.167Z,48.20
2023-04-17T15:11:43.784Z,48.36
2023-04-17T15:14:45.377Z,48.26
2023-04-17T15:17:47.044Z,48.37
2023-04-17T15:20:48.597Z,48.29
2023-04-17T15:23:50.157Z,48.40
2023-04-17T15:26:51.672Z,48.60
2023-04-17T15:29:53.238Z,48.44
2023-04-17T15:32:54.818Z,48.38
2023-04-17T15:35:58.590Z,48.17
2023-04-17T15:39:01.173Z,48.04
2023-04-17T15:42:03.145Z,48.07
2023-04-17T15:45:05.350Z,48.08
2023-04-17T15:48:07.091Z,48.21
2023-04-17T15:51:09.584Z,48.31
2023-04-17T15:54:12.151Z,47.95
2023-04-17T15:57:13.880Z,48.13
2023-04-17T16:00:16.045Z,48.22
2023-04-17T16:03:17.796Z,47.83
2023-04-17T16:06:20.520Z,48.19
2023-04-17T16:09:24.433Z,48.20
2023-04-17T16:12:28.230Z,47.86
2023-04-17T16:15:30.506Z,48.05
2023-04-17T16:18:32.084Z,47.75
2023-04-17T16:21:33.693Z,47.44
2023-04-17T16:24:35.222Z,47.79
2023-04-17T16:27:37.682Z,47.66
2023-04-17T16:30:39.246Z,47.54
2023-04-17T16:33:40.907Z,47.39
2023-04-17T16:36:45.411Z,47.19
2023-04-17T16:39:47.360Z,47.13
2023-04-17T16:42:48.896Z,46.90
2023-04-17T16:45:50.563Z,47.12
2023-04-17T16:48:52.862Z,47.30
2023-04-17T16:51:54.636Z,47.28
2023-04-17T16:54:56.244Z,47.05
2023-04-17T16:58:00.121Z,46.97
2023-04-17T17:01:01.789Z,47.02
2023-04-17T17:04:03.560Z,46.93
2023-04-17T17:07:06.123Z,46.96
2023-04-17T17:10:08.297Z,46.91
2023-04-17T17:13:09.877Z,47.02
2023-04-17T17:16:11.527Z,47.17
2023-04-17T17:19:14.767Z,47.13
2023-04-17T17:22:16.564Z,46.93
2023-04-17T17:25:18.156Z,46.95
2023-04-17T17:28:19.768Z,47.10
2023-04-17T17:31:21.476Z,46.71
2023-04-17T17:34:26.641Z,46.74
2023-04-17T17:37:28.736Z,46.79
2023-04-17T17:40:30.523Z,46.87
2023-04-17T17:43:32.094Z,46.87
2023-04-17T17:46:35.975Z,46.78
2023-04-17T17:49:37.669Z,46.65
2023-04-17T17:52:39.253Z,46.47
2023-04-17T17:55:40.806Z,46.63
2023-04-17T17:58:42.469Z,46.61
2023-04-17T18:01:44.276Z,46.50
2023-04-17T18:04:46.088Z,46.50
2023-04-17T18:07:47.982Z,46.50
2023-04-17T18:10:49.523Z,46.48
2023-04-17T18:13:51.314Z,46.50
2023-04-17T18:16:53.086Z,46.54
2023-04-17T18:19:54.651Z,46.48
2023-04-17T18:22:56.471Z,46.52
2023-04-17T18:26:02.979Z,46.45
2023-04-17T18:29:04.683Z,46.51
2023-04-17T18:32:06.483Z,46.20
2023-04-17T18:35:08.428Z,46.22
2023-04-17T18:38:10.059Z,46.31
2023-04-17T18:41:11.600Z,46.27
2023-04-17T18:44:13.931Z,46.24
2023-04-17T18:47:15.624Z,46.40
2023-04-17T18:50:17.338Z,46.22
2023-04-17T18:53:18.937Z,46.36
2023-04-17T18:56:20.484Z,46.24
2023-04-17T18:59:22.108Z,46.23
2023-04-17T19:02:23.737Z,46.23
2023-04-17T19:05:27.144Z,46.33
2023-04-17T19:08:28.877Z,46.34
2023-04-17T19:11:31.104Z,46.22
2023-04-17T19:14:33.052Z,46.18
2023-04-17T19:17:35.491Z,46.42
2023-04-17T19:20:38.700Z,46.43
2023-04-17T19:23:41.015Z,46.35
2023-04-17T19:26:43.360Z,46.23
2023-04-17T19:29:46.116Z,46.27
2023-04-17T19:32:48.273Z,46.21
2023-04-17T19:35:50.596Z,46.20
2023-04-17T19:38:54.394Z,46.39
2023-04-17T19:41:55.959Z,46.26
2023-04-17T19:44:57.525Z,46.27
2023-04-17T19:47:59.733Z,46.23
2023-04-17T19:51:04.624Z,46.22
2023-04-17T19:54:06.245Z,46.24
2023-04-17T19:57:07.787Z,46.28
2023-04-17T20:00:10.306Z,46.17
2023-04-17T20:03:12.040Z,46.27
2023-04-17T20:06:14.113Z,46.28
2023-04-17T20:09:16.707Z,46.34
2023-04-17T20:12:20.722Z,46.50
2023-04-17T20:15:22.296Z,46.33
2023-04-17T20:18:24.208Z,46.39
2023-04-17T20:21:26.731Z,46.31
2023-04-17T20:24:28.609Z,46.35
2023-04-17T20:27:30.137Z,46.29
2023-04-17T20:30:31.799Z,46.41
2023-04-17T20:33:33.469Z,46.33
2023-04-17T20:36:35.352Z,46.38
2023-04-17T20:39:36.951Z,46.30
2023-04-17T20:42:38.978Z,46.39
2023-04-17T20:45:40.573Z,46.44
2023-04-17T20:48:42.143Z,46.46
2023-04-17T20:51:44.436Z,46.50
2023-04-17T20:54:46.046Z,46.40
2023-04-17T20:57:47.801Z,46.70
2023-04-17T21:01:00.823Z,46.43
2023-04-17T21:04:03.403Z,46.41
2023-04-17T21:07:04.966Z,46.54
2023-04-17T21:10:07.034Z,46.51
2023-04-17T21:13:08.746Z,46.64
2023-04-17T21:16:11.734Z,46.63
2023-04-17T21:19:14.599Z,46.74
2023-04-17T21:22:16.352Z,46.61
2023-04-17T21:25:17.999Z,46.67
2023-04-17T21:28:20.015Z,46.82
2023-04-17T21:31:21.642Z,46.79
2023-04-17T21:34:24.250Z,46.73
2023-04-17T21:37:25.844Z,46.82
2023-04-17T21:40:32.703Z,46.90
2023-04-17T21:43:35.069Z,46.79
2023-04-17T21:46:37.995Z,46.81
2023-04-17T21:49:39.582Z,46.94
2023-04-17T21:52:41.089Z,46.82
2023-04-17T21:55:42.672Z,46.98
2023-04-17T21:58:44.218Z,46.91
2023-04-17T22:01:45.750Z,46.99
2023-04-17T22:04:47.355Z,47.09
2023-04-17T22:07:54.874Z,47.02
2023-04-17T22:10:57.092Z,47.14
2023-04-17T22:13:58.721Z,47.05
2023-04-17T22:17:00.401Z,47.09
2023-04-17T22:20:02.229Z,47.16
2023-04-17T22:23:03.858Z,46.99
2023-04-17T22:26:05.767Z,47.10
2023-04-17T22:29:07.584Z,47.19
2023-04-17T22:32:09.156Z,47.17
2023-04-17T22:35:10.730Z,47.19
2023-04-17T22:38:12.336Z,47.14
2023-04-17T22:41:13.912Z,47.31
2023-04-17T22:44:15.784Z,47.34
2023-04-17T22:47:17.602Z,47.36
2023-04-17T22:50:19.236Z,47.35
2023-04-17T22:53:22.526Z,47.37
2023-04-17T22:56:24.230Z,47.55
2023-04-17T22:59:26.030Z,47.53
2023-04-17T23:02:27.644Z,47.47
2023-04-17T23:05:29.381Z,47.51
2023-04-17T23:08:31.226Z,47.70
2023-04-17T23:11:33.070Z,47.59
2023-04-17T23:14:34.670Z,47.53
2023-04-17T23:17:36.280Z,47.50
2023-04-17T23:20:37.855Z,47.71
2023-04-17T23:23:39.395Z,47.67
2023-04-17T23:26:41.872Z,47.72
2023-04-17T23:29:43.484Z,47.73
2023-04-17T23:32:45.170Z,47.77
2023-04-17T23:35:46.740Z,47.80
2023-04-17T23:38:48.350Z,47.90
2023-04-17T23:41:50.444Z,47.80
2023-04-17T23:44:52.040Z,47.94
2023-04-17T23:47:53.704Z,48.00
2023-04-17T23:50:55.779Z,48.03
2023-04-17T23:53:59.571Z,48.13
2023-04-17T23:57:01.275Z,48.14
